In Rescue
 
Open Full Screen Window  High Contrast Mode
Wind Gusting 00 knots
06
June 22, 2024 9:41 PM CDT
Weather Information
Wind Direction
  350 °
Wind Speed
  06 kt (7 mph)
Wind Gust
  00 kt (0 mph)
Altimeter
29.85 in
Visibility
---
Temperature
13° C
55° F
Dewpoint
10° C
50° F
Humidity
82%
Sky Condition
Overcast @ 1,200 ft

METAR KCBG 230241Z AUTO 35006KT OVC012 13/10 A2985 RMK AO2 PWINO

FAA Disclaimer: The data displayed is for advisory purposes only and is not to be used for flight planning or operations.